createdAt,value
2019-04-28T00:03:51.470Z,9.10
2019-04-28T00:08:56.810Z,9.03
2019-04-28T00:14:02.436Z,8.99
2019-04-28T00:19:07.926Z,8.93
2019-04-28T00:24:23.062Z,9.03
2019-04-28T00:29:38.536Z,9.04
2019-04-28T00:34:35.947Z,9.05
2019-04-28T00:39:41.425Z,9.14
2019-04-28T00:44:46.884Z,9.30
2019-04-28T00:49:52.540Z,9.36
2019-04-28T00:54:58.094Z,9.43
2019-04-28T01:00:03.719Z,9.49
2019-04-28T01:05:11.327Z,9.49
2019-04-28T01:10:18.024Z,9.57
2019-04-28T01:15:42.511Z,9.61
2019-04-28T01:20:49.563Z,9.65
2019-04-28T01:25:55.198Z,9.71
2019-04-28T01:31:09.575Z,9.71
2019-04-28T01:36:15.163Z,9.72
2019-04-28T01:41:20.967Z,9.73
2019-04-28T01:46:26.426Z,9.72
2019-04-28T01:51:32.016Z,9.79
2019-04-28T01:56:37.496Z,9.79
2019-04-28T02:01:43.010Z,9.65
2019-04-28T02:06:49.726Z,9.66
2019-04-28T02:11:55.146Z,9.84
2019-04-28T02:17:00.689Z,9.81
2019-04-28T02:22:16.395Z,9.82
2019-04-28T02:27:22.117Z,9.83
2019-04-28T02:32:30.671Z,9.59
2019-04-28T02:37:34.721Z,9.30
2019-04-28T02:42:40.906Z,9.11
2019-04-28T02:47:47.309Z,9.02
2019-04-28T02:52:57.908Z,8.92
2019-04-28T02:58:03.511Z,8.87
2019-04-28T03:03:11.029Z,8.82
2019-04-28T03:08:16.249Z,8.81
2019-04-28T03:13:21.967Z,8.88
2019-04-28T03:18:27.544Z,8.96
2019-04-28T03:23:33.288Z,9.05
2019-04-28T03:28:47.031Z,9.16
2019-04-28T03:33:55.455Z,9.33
2019-04-28T03:39:00.774Z,9.33
2019-04-28T03:44:06.547Z,9.41
2019-04-28T03:49:13.582Z,9.64
2019-04-28T03:54:20.426Z,9.62
2019-04-28T03:59:26.106Z,9.74
2019-04-28T04:04:32.235Z,9.59
2019-04-28T04:09:46.029Z,9.55
2019-04-28T04:14:56.878Z,9.66
2019-04-28T04:20:02.305Z,9.87
2019-04-28T04:25:10.067Z,9.78
2019-04-28T04:30:15.111Z,9.63
2019-04-28T04:35:21.430Z,9.80
2019-04-28T04:40:26.947Z,9.90
2019-04-28T04:45:32.466Z,10.09
2019-04-28T04:50:37.937Z,9.88
2019-04-28T04:55:43.411Z,9.91
2019-04-28T05:00:56.509Z,10.05
2019-04-28T05:06:03.645Z,10.12
2019-04-28T05:11:09.612Z,10.28
2019-04-28T05:16:15.664Z,10.35
2019-04-28T05:21:21.545Z,10.45
2019-04-28T05:26:27.157Z,10.29
2019-04-28T05:31:32.544Z,10.22
2019-04-28T05:36:42.406Z,10.21
2019-04-28T05:41:45.231Z,10.31
2019-04-28T05:46:50.900Z,10.38
2019-04-28T05:52:00.653Z,10.30
2019-04-28T05:57:14.127Z,10.31
2019-04-28T06:02:24.009Z,10.28
2019-04-28T06:07:35.136Z,10.21
2019-04-28T06:12:40.684Z,10.25
2019-04-28T06:17:46.339Z,10.37
2019-04-28T06:22:51.797Z,10.48
2019-04-28T06:27:57.276Z,10.43
2019-04-28T06:33:07.994Z,10.38
2019-04-28T06:38:13.118Z,10.44
2019-04-28T06:43:18.578Z,10.59
2019-04-28T06:48:24.505Z,10.68
2019-04-28T06:53:29.984Z,10.62
2019-04-28T06:58:35.446Z,10.72
2019-04-28T07:03:40.837Z,10.68
2019-04-28T07:08:46.571Z,10.67
2019-04-28T07:13:52.032Z,10.72
2019-04-28T07:18:57.809Z,10.87
2019-04-28T07:24:03.464Z,10.91
2019-04-28T07:29:09.047Z,10.92
2019-04-28T07:34:14.551Z,10.98
2019-04-28T07:39:20.058Z,10.95
2019-04-28T07:44:25.536Z,10.85
2019-04-28T07:49:31.066Z,10.84
2019-04-28T07:54:36.536Z,10.85
2019-04-28T07:59:42.120Z,10.80
2019-04-28T08:04:47.721Z,10.86
2019-04-28T08:09:53.295Z,10.84
2019-04-28T08:14:59.104Z,10.88
2019-04-28T08:20:05.750Z,10.93
2019-04-28T08:25:12.625Z,11.01
2019-04-28T08:30:18.136Z,11.08
2019-04-28T08:35:23.494Z,11.12
2019-04-28T08:40:28.856Z,11.08
2019-04-28T08:45:34.683Z,11.16
2019-04-28T08:50:40.272Z,11.14
2019-04-28T08:55:46.153Z,11.38
2019-04-28T09:00:51.568Z,11.57
2019-04-28T09:05:57.140Z,11.68
2019-04-28T09:11:02.634Z,11.67
2019-04-28T09:16:08.029Z,11.70
2019-04-28T09:21:13.466Z,11.79
2019-04-28T09:26:18.874Z,11.82
2019-04-28T09:31:24.396Z,11.82
2019-04-28T09:36:30.130Z,11.86
2019-04-28T09:41:37.400Z,11.72
2019-04-28T09:46:43.438Z,11.55
2019-04-28T09:51:48.904Z,11.64
2019-04-28T09:56:56.771Z,11.75
2019-04-28T10:02:01.912Z,11.96
2019-04-28T10:07:07.543Z,12.07
2019-04-28T10:12:12.898Z,12.11
2019-04-28T10:17:18.469Z,12.20
2019-04-28T10:22:24.699Z,12.49
2019-04-28T10:27:30.052Z,12.50
2019-04-28T10:32:35.487Z,12.86
2019-04-28T10:37:42.174Z,13.04
2019-04-28T10:42:47.859Z,12.93
2019-04-28T10:47:53.621Z,13.07
2019-04-28T10:52:59.056Z,13.09
2019-04-28T10:58:04.456Z,13.27
2019-04-28T11:03:09.951Z,13.56
2019-04-28T11:08:34.509Z,13.62
2019-04-28T11:13:39.971Z,13.39
2019-04-28T11:18:45.459Z,13.25
2019-04-28T11:23:50.980Z,13.31
2019-04-28T11:28:57.053Z,13.27
2019-04-28T11:34:11.005Z,13.16
2019-04-28T11:39:20.938Z,13.17
2019-04-28T11:44:26.388Z,13.29
2019-04-28T11:49:31.912Z,13.21
2019-04-28T11:54:37.764Z,13.27
2019-04-28T11:59:43.386Z,13.62
2019-04-28T12:04:48.959Z,14.42
2019-04-28T12:10:05.893Z,14.93
2019-04-28T12:15:18.978Z,15.32
2019-04-28T12:20:25.535Z,15.91
2019-04-28T12:25:30.821Z,16.19
2019-04-28T12:30:36.508Z,16.60
2019-04-28T12:35:47.960Z,16.27
2019-04-28T12:40:49.186Z,15.80
2019-04-28T12:45:54.606Z,15.54
2019-04-28T12:51:00.000Z,15.07
2019-04-28T12:56:05.482Z,15.23
2019-04-28T13:01:19.978Z,15.04
2019-04-28T13:06:25.742Z,15.09
2019-04-28T13:11:31.141Z,15.15
2019-04-28T13:16:36.838Z,14.93
2019-04-28T13:21:58.386Z,14.59
2019-04-28T13:34:04.017Z,14.64
2019-04-28T13:39:12.848Z,14.93
2019-04-28T13:44:39.338Z,15.20
2019-04-28T13:49:50.939Z,15.33
2019-04-28T13:55:06.450Z,15.17
2019-04-28T14:00:14.112Z,15.17
2019-04-28T14:05:27.997Z,15.43
2019-04-28T14:10:33.525Z,15.37
2019-04-28T14:15:39.112Z,15.31
2019-04-28T14:20:44.609Z,15.44
2019-04-28T14:25:49.956Z,15.61
2019-04-28T14:30:55.542Z,15.77
2019-04-28T14:36:00.918Z,15.74
2019-04-28T14:41:06.393Z,15.70
2019-04-28T14:46:11.856Z,15.61
2019-04-28T14:51:17.215Z,15.56
2019-04-28T14:56:22.543Z,15.46
2019-04-28T15:01:46.701Z,16.31
2019-04-28T15:07:02.951Z,16.89
2019-04-28T15:12:08.753Z,16.62
2019-04-28T15:17:14.147Z,15.88
2019-04-28T15:22:19.505Z,15.57
2019-04-28T15:27:25.807Z,15.68
2019-04-28T15:32:31.528Z,15.70
2019-04-28T15:37:37.247Z,15.41
2019-04-28T15:42:42.554Z,15.47
2019-04-28T15:47:47.804Z,15.59
2019-04-28T15:52:53.037Z,15.75
2019-04-28T15:57:59.971Z,15.75
2019-04-28T16:03:05.414Z,15.59
2019-04-28T16:08:10.783Z,14.96
2019-04-28T16:13:16.193Z,14.93
2019-04-28T16:18:21.511Z,14.88
2019-04-28T16:23:27.003Z,15.05
2019-04-28T16:28:32.584Z,14.87
2019-04-28T16:33:38.383Z,14.57
2019-04-28T16:38:43.910Z,14.03
2019-04-28T16:43:53.070Z,13.67
2019-04-28T16:48:58.350Z,13.49
2019-04-28T16:54:03.678Z,13.33
2019-04-28T16:59:18.943Z,12.98
2019-04-28T17:04:25.838Z,12.98
2019-04-28T17:09:31.363Z,13.14
2019-04-28T17:14:36.718Z,12.96
2019-04-28T17:19:42.006Z,12.67
2019-04-28T17:24:47.514Z,12.66
2019-04-28T17:29:52.858Z,12.55
2019-04-28T17:34:58.320Z,12.51
2019-04-28T17:40:06.527Z,12.34
2019-04-28T17:45:12.179Z,12.10
2019-04-28T17:50:19.542Z,12.07
2019-04-28T17:55:24.881Z,11.98
2019-04-28T18:00:39.028Z,12.01
2019-04-28T18:05:48.838Z,11.99
2019-04-28T18:10:54.209Z,11.91
2019-04-28T18:16:08.157Z,11.93
2019-04-28T18:21:13.627Z,11.95
2019-04-28T18:26:19.165Z,11.73
2019-04-28T18:31:32.940Z,11.73
2019-04-28T18:36:44.658Z,11.63
2019-04-28T18:42:01.577Z,11.71
2019-04-28T18:47:09.693Z,11.97
2019-04-28T18:52:15.187Z,12.12
2019-04-28T18:57:21.678Z,12.21
2019-04-28T19:02:35.586Z,12.27
2019-04-28T19:07:48.959Z,12.31
2019-04-28T19:13:03.124Z,12.20
2019-04-28T19:18:13.023Z,12.14
2019-04-28T19:23:18.364Z,12.03
2019-04-28T19:28:24.393Z,12.06
2019-04-28T19:33:29.823Z,12.16
2019-04-28T19:38:35.266Z,11.95
2019-04-28T19:43:41.435Z,11.81
2019-04-28T19:48:46.942Z,11.67
2019-04-28T19:53:52.457Z,11.57
2019-04-28T19:59:04.006Z,11.62
2019-04-28T20:04:09.394Z,11.78
2019-04-28T20:09:14.776Z,12.05
2019-04-28T20:14:20.195Z,12.23
2019-04-28T20:19:25.552Z,12.10
2019-04-28T20:24:31.579Z,12.01
2019-04-28T20:29:36.898Z,11.95
2019-04-28T20:34:44.598Z,11.93
2019-04-28T20:39:53.415Z,12.01
2019-04-28T20:44:59.993Z,11.69
2019-04-28T20:50:05.758Z,11.56
2019-04-28T20:55:11.253Z,11.56
2019-04-28T21:00:17.064Z,11.75
2019-04-28T21:05:22.601Z,12.00
2019-04-28T21:10:37.548Z,11.84
2019-04-28T21:15:37.820Z,11.73
2019-04-28T21:20:43.325Z,11.68
2019-04-28T21:25:48.806Z,11.84
2019-04-28T21:30:54.227Z,11.67
2019-04-28T21:35:59.753Z,11.72
2019-04-28T21:41:05.675Z,11.69
2019-04-28T21:46:18.906Z,11.95
2019-04-28T21:51:24.413Z,12.22
2019-04-28T21:56:29.698Z,12.03
2019-04-28T22:01:35.103Z,11.86
2019-04-28T22:06:40.490Z,12.02
2019-04-28T22:11:45.992Z,12.16
2019-04-28T22:16:51.347Z,12.30
2019-04-28T22:21:56.694Z,12.08
2019-04-28T22:27:02.107Z,12.17
2019-04-28T22:32:07.437Z,12.13
2019-04-28T22:37:13.167Z,12.14
2019-04-28T22:42:18.493Z,12.05
2019-04-28T22:47:24.563Z,12.12
2019-04-28T22:52:29.820Z,12.20
2019-04-28T22:57:53.965Z,12.26
2019-04-28T23:02:59.523Z,12.19
2019-04-28T23:08:04.825Z,12.34
2019-04-28T23:13:10.053Z,12.43
2019-04-28T23:18:15.618Z,12.50
2019-04-28T23:23:21.068Z,12.46
2019-04-28T23:28:26.390Z,12.41
2019-04-28T23:33:31.662Z,12.27
2019-04-28T23:38:37.140Z,12.13
2019-04-28T23:43:42.562Z,12.14
2019-04-28T23:48:52.317Z,12.30
2019-04-28T23:54:01.712Z,12.38
2019-04-28T23:59:07.023Z,12.15
